createdAt,value
2022-09-02T00:07:57.915Z,101025.55
2022-09-02T00:18:48.289Z,101017.10
2022-09-02T00:29:41.124Z,101021.27
2022-09-02T00:40:26.534Z,101023.27
2022-09-02T00:51:08.055Z,101027.45
2022-09-02T01:02:10.732Z,101029.04
2022-09-02T01:12:57.570Z,101027.49
2022-09-02T01:23:17.266Z,101027.63
2022-09-02T01:34:15.201Z,101021.63
2022-09-02T01:44:56.163Z,101023.08
2022-09-02T01:56:13.119Z,101029.31
2022-09-02T02:06:35.463Z,101027.75
2022-09-02T02:17:13.517Z,101025.05
2022-09-02T02:28:15.435Z,101030.46
2022-09-02T02:38:19.488Z,101019.77
2022-09-02T02:48:23.594Z,101014.71
2022-09-02T02:59:29.875Z,101018.99
2022-09-02T03:10:39.023Z,101026.77
2022-09-02T03:20:52.030Z,101023.92
2022-09-02T03:31:51.057Z,101027.95
2022-09-02T03:43:00.116Z,101027.31
2022-09-02T03:54:15.937Z,101031.11
2022-09-02T04:05:06.371Z,101047.44
2022-09-02T04:15:26.600Z,101056.84
2022-09-02T04:26:27.979Z,101063.00
2022-09-02T04:37:22.051Z,101073.61
2022-09-02T04:48:06.032Z,101072.30
2022-09-02T04:58:59.452Z,101072.17
2022-09-02T05:10:09.482Z,101068.30
2022-09-02T05:21:23.921Z,101076.00
2022-09-02T05:32:37.012Z,101068.58
2022-09-02T05:43:46.402Z,101071.35
2022-09-02T05:54:49.396Z,101076.88
2022-09-02T06:06:06.453Z,101072.94
2022-09-02T06:16:26.941Z,101078.38
2022-09-02T06:26:43.978Z,101082.54
2022-09-02T06:37:03.152Z,101086.68
2022-09-02T06:47:16.256Z,101088.83
2022-09-02T06:57:39.355Z,101094.31
2022-09-02T07:08:08.921Z,101098.09
2022-09-02T07:18:39.608Z,101105.52
2022-09-02T07:28:58.595Z,101107.43
2022-09-02T07:39:32.552Z,101111.48
2022-09-02T07:50:18.925Z,101110.29
2022-09-02T08:00:45.698Z,101105.30
2022-09-02T08:10:56.465Z,101103.41
2022-09-02T08:21:03.123Z,101100.80
2022-09-02T08:31:13.688Z,101099.19
2022-09-02T08:41:28.183Z,101093.30
2022-09-02T08:51:52.739Z,101089.87
2022-09-02T09:02:31.709Z,101086.96
2022-09-02T09:13:12.609Z,101075.47
2022-09-02T09:23:34.670Z,101067.40
2022-09-02T09:34:11.553Z,101071.95
2022-09-02T09:45:21.698Z,101062.77
2022-09-02T09:56:02.151Z,101059.15
2022-09-02T10:06:48.541Z,101053.44
2022-09-02T10:17:30.438Z,101042.41
2022-09-02T10:28:04.287Z,101034.27
2022-09-02T10:38:41.681Z,101028.19
2022-09-02T10:49:23.171Z,101027.52
2022-09-02T10:59:51.200Z,101024.12
2022-09-02T11:10:03.973Z,101019.02
2022-09-02T11:20:27.617Z,101012.11
2022-09-02T11:30:43.601Z,101019.02
2022-09-02T11:41:38.092Z,101009.74
2022-09-02T12:02:45.417Z,100983.37
2022-09-02T12:13:01.416Z,100981.66
2022-09-02T12:23:40.073Z,100969.23
2022-09-02T12:33:49.409Z,100959.65
2022-09-02T12:44:09.436Z,100962.20
2022-09-02T12:54:16.564Z,100955.88
2022-09-02T13:04:30.838Z,100951.54
2022-09-02T13:14:56.137Z,100938.09
2022-09-02T13:25:29.223Z,100939.48
2022-09-02T13:35:59.346Z,100927.48
2022-09-02T13:46:16.455Z,100921.11
2022-09-02T13:56:25.236Z,100907.81
2022-09-02T14:06:51.915Z,100898.07
2022-09-02T14:17:21.285Z,100888.04
2022-09-02T14:27:26.917Z,100889.00
2022-09-02T14:37:51.227Z,100891.02
2022-09-02T14:47:59.226Z,100887.45
2022-09-02T14:58:03.979Z,100889.55
2022-09-02T15:08:16.048Z,100885.57
2022-09-02T15:18:19.336Z,100878.56
2022-09-02T15:28:23.083Z,100867.93
2022-09-02T15:38:26.490Z,100862.65
2022-09-02T15:48:32.822Z,100863.95
2022-09-02T15:58:45.057Z,100867.22
2022-09-02T16:08:51.712Z,100869.11
2022-09-02T16:18:55.255Z,100865.52
2022-09-02T16:29:16.070Z,100869.34
2022-09-02T16:39:20.658Z,100860.99
2022-09-02T16:49:35.111Z,100869.63
2022-09-02T16:59:53.068Z,100872.07
2022-09-02T17:10:01.795Z,100874.21
2022-09-02T17:20:13.229Z,100876.95
2022-09-02T17:30:46.029Z,100877.75
2022-09-02T17:41:10.299Z,100881.96
2022-09-02T17:51:36.641Z,100883.61
2022-09-02T18:01:53.507Z,100886.95
2022-09-02T18:12:07.569Z,100897.16
2022-09-02T18:22:52.186Z,100900.94
2022-09-02T18:33:07.620Z,100911.06
2022-09-02T18:43:24.843Z,100905.55
2022-09-02T18:53:36.822Z,100908.65
2022-09-02T19:03:40.158Z,100911.33
2022-09-02T19:14:03.540Z,100912.17
2022-09-02T19:24:24.023Z,100908.46
2022-09-02T19:34:43.037Z,100917.17
2022-09-02T19:44:59.037Z,100917.83
2022-09-02T19:55:18.699Z,100922.89
2022-09-02T20:05:53.737Z,100924.89
2022-09-02T20:16:35.305Z,100926.00
2022-09-02T20:27:35.674Z,100924.19
2022-09-02T20:38:34.515Z,100922.88
2022-09-02T20:49:42.120Z,100924.80
2022-09-02T21:00:52.209Z,100932.57
2022-09-02T21:11:25.417Z,100932.84
2022-09-02T21:22:43.608Z,100938.48
2022-09-02T21:33:30.705Z,100944.62
2022-09-02T21:45:04.224Z,100940.44
2022-09-02T21:56:23.094Z,100929.53
2022-09-02T22:07:18.658Z,100936.75
2022-09-02T22:18:08.570Z,100946.67
2022-09-02T22:29:07.034Z,100944.84
2022-09-02T22:40:21.737Z,100944.71
2022-09-02T22:51:09.859Z,100940.46
2022-09-02T23:01:58.616Z,100936.95
2022-09-02T23:12:51.627Z,100941.34
2022-09-02T23:24:37.237Z,100940.63
2022-09-02T23:36:06.493Z,100937.93
2022-09-02T23:47:23.268Z,100938.09
2022-09-02T23:58:43.645Z,100940.67
